Eastern Asia — 3FQP2 — position and weather

sailwx.info

Track history (hours):
 
Tides and Currents Weather Stations Pressure Air Temp Water Temp Dewpoint Dewpoint Depression Visibility Wind Speed Wind Dir Waves Ship Positions

Eastern Asia

Last reported at 2015-Jul-31 21:24 UTC. Time now 2015-Aug-02 16:28 UTC.
Position N 01°15' E 104°04'.

Length 175 m; draft 6.2 m.

Type: Cargo ship. MMSI: 355530000.

Date/timePositionNaut miles runAvg speedWind from/ knotsBaromVisibWave heightAir tempDewpointWater temp
2015-Jul-31 21:24N 01°15' E 104°04'1112.4
2015-Jul-31 20:33N 01°12' E 103°54'17211.4
2015-Jul-31 05:33N 02°36' E 101°24'22 7.4
2015-Jul-31 02:31N 02°57' E 101°18'0 0.0
2015-Jul-31 01:31N 02°57' E 101°18'0 0.0
2015-Jul-30 23:31N 02°57' E 101°18'0 0.0
2015-Jul-30 22:31N 02°57' E 101°18'0 0.0
2015-Jul-30 20:28N 02°57' E 101°18'0 0.0
2015-Jul-30 18:33N 02°57' E 101°18'6 3.0
2015-Jul-30 16:27N 03°03' E 101°21'0 0.0
2015-Jul-30 14:33N 03°03' E 101°21'0 0.0
2015-Jul-30 12:30N 03°03' E 101°21'0 0.0
2015-Jul-30 09:27N 03°03' E 101°21'0 0.0
2015-Jul-30 08:33N 03°03' E 101°21'1 0.3
2015-Jul-30 06:33N 03°02' E 101°21'20 9.9
2015-Jul-30 04:34N 02°44' E 101°14'9 8.9
2015-Jul-30 03:33N 02°39' E 101°22'2311.5
2015-Jul-30 01:33N 02°26' E 101°40'11 9.9
2015-Jul-30 00:25N 02°19' E 101°49'2111.0
2015-Jul-29 22:29N 02°05' E 102°05'10711.7
2015-Jul-29 13:23N 01°12' E 103°38'8 8.9
2015-Jul-29 12:32N 01°16' E 103°44'3 0.5
2015-Jul-29 07:26N 01°18' E 103°43'0 0.0
2015-Jul-29 02:33N 01°18' E 103°43'5 5.2
2015-Jul-29 01:33N 01°14' E 103°47'8 7.6
2015-Jul-29 00:33N 01°14' E 103°54'7 7.1
2015-Jul-28 23:32N 01°16' E 104°01'  
Track history (hours):
 
Tides and Currents Weather Stations Pressure Air Temp Water Temp Dewpoint Dewpoint Depression Visibility Wind Speed Wind Dir Waves Ship Positions

Eastern Asia

Last reported at 2015-Jul-31 21:24 UTC. Time now 2015-Aug-02 16:28 UTC.
Position N 01°15' E 104°04'.

Length 175 m; draft 6.2 m.

Type: Cargo ship. MMSI: 355530000.

Date/timePositionNaut miles runAvg speedWind from/ knotsBaromVisibWave heightAir tempDewpointWater temp
2015-Jul-31 21:24N 01°15' E 104°04'1112.4
2015-Jul-31 20:33N 01°12' E 103°54'17211.4
2015-Jul-31 05:33N 02°36' E 101°24'22 7.4
2015-Jul-31 02:31N 02°57' E 101°18'0 0.0
2015-Jul-31 01:31N 02°57' E 101°18'0 0.0
2015-Jul-30 23:31N 02°57' E 101°18'0 0.0
2015-Jul-30 22:31N 02°57' E 101°18'0 0.0
2015-Jul-30 20:28N 02°57' E 101°18'0 0.0
2015-Jul-30 18:33N 02°57' E 101°18'6 3.0
2015-Jul-30 16:27N 03°03' E 101°21'0 0.0
2015-Jul-30 14:33N 03°03' E 101°21'0 0.0
2015-Jul-30 12:30N 03°03' E 101°21'0 0.0
2015-Jul-30 09:27N 03°03' E 101°21'0 0.0
2015-Jul-30 08:33N 03°03' E 101°21'1 0.3
2015-Jul-30 06:33N 03°02' E 101°21'20 9.9
2015-Jul-30 04:34N 02°44' E 101°14'9 8.9
2015-Jul-30 03:33N 02°39' E 101°22'2311.5
2015-Jul-30 01:33N 02°26' E 101°40'11 9.9
2015-Jul-30 00:25N 02°19' E 101°49'2111.0
2015-Jul-29 22:29N 02°05' E 102°05'10711.7
2015-Jul-29 13:23N 01°12' E 103°38'8 8.9
2015-Jul-29 12:32N 01°16' E 103°44'3 0.5
2015-Jul-29 07:26N 01°18' E 103°43'0 0.0
2015-Jul-29 02:33N 01°18' E 103°43'5 5.2
2015-Jul-29 01:33N 01°14' E 103°47'8 7.6
2015-Jul-29 00:33N 01°14' E 103°54'7 7.1
2015-Jul-28 23:32N 01°16' E 104°01'  

Dump ship's entire track history